Terminal Aerodrome Forecast
Issued by NWS Flagstaff, AZ

Home | Current Version | Previous Version | Text Only | Print | Product List | Glossary On
Versions: 1 2 3 4 5 6 7 8 9 10 11 12 13
000
FTUS45 KFGZ 280500
TAFINW
TAF
KINW 280532Z 2806/0106 13007KT P6SM SCT080 BKN100
     FM281730 22022G36KT P6SM SCT060 BKN080
     FM010130 23017KT P6SM SCT050 BKN070=

USA.gov is the U.S. government's official web portal to all federal, state and local government web resources and services.